sensor_id;sensor_type;location;lat;lon;timestamp;pressure;altitude;pressure_sealevel;temperature;humidity
71109;BME280;59614;51.012;-1.648;2022-07-29T00:02:11;100924.84;;;13.64;76.15
71109;BME280;59614;51.012;-1.648;2022-07-29T00:04:37;100920.03;;;13.83;75.10
71109;BME280;59614;51.012;-1.648;2022-07-29T00:07:03;100924.22;;;13.94;74.25
71109;BME280;59614;51.012;-1.648;2022-07-29T00:09:30;100921.38;;;14.01;73.51
71109;BME280;59614;51.012;-1.648;2022-07-29T00:11:59;100919.53;;;14.07;72.39
71109;BME280;59614;51.012;-1.648;2022-07-29T00:14:25;100917.63;;;14.12;71.79
71109;BME280;59614;51.012;-1.648;2022-07-29T00:16:50;100916.66;;;14.14;71.11
71109;BME280;59614;51.012;-1.648;2022-07-29T00:19:16;100918.34;;;14.18;70.20
71109;BME280;59614;51.012;-1.648;2022-07-29T00:21:41;100919.22;;;14.19;70.04
71109;BME280;59614;51.012;-1.648;2022-07-29T00:24:07;100929.81;;;14.19;69.63
71109;BME280;59614;51.012;-1.648;2022-07-29T00:26:32;100925.34;;;14.21;69.37
71109;BME280;59614;51.012;-1.648;2022-07-29T00:28:59;100919.06;;;14.25;68.84
71109;BME280;59614;51.012;-1.648;2022-07-29T00:31:24;100921.56;;;14.33;67.62
71109;BME280;59614;51.012;-1.648;2022-07-29T00:33:50;100914.38;;;14.36;67.33
71109;BME280;59614;51.012;-1.648;2022-07-29T00:36:15;100904.59;;;14.39;66.89
71109;BME280;59614;51.012;-1.648;2022-07-29T00:38:41;100909.91;;;14.39;66.60
71109;BME280;59614;51.012;-1.648;2022-07-29T00:41:09;100906.47;;;14.33;66.61
71109;BME280;59614;51.012;-1.648;2022-07-29T00:43:34;100914.00;;;14.16;68.19
71109;BME280;59614;51.012;-1.648;2022-07-29T00:46:00;100908.16;;;14.00;68.72
71109;BME280;59614;51.012;-1.648;2022-07-29T00:48:25;100903.09;;;13.89;69.33
71109;BME280;59614;51.012;-1.648;2022-07-29T00:50:51;100897.03;;;13.82;69.98
71109;BME280;59614;51.012;-1.648;2022-07-29T00:53:16;100904.16;;;13.82;70.28
71109;BME280;59614;51.012;-1.648;2022-07-29T00:55:42;100900.59;;;13.83;70.62
71109;BME280;59614;51.012;-1.648;2022-07-29T00:58:08;100902.19;;;13.90;70.94
71109;BME280;59614;51.012;-1.648;2022-07-29T01:00:34;100898.63;;;13.91;71.00
71109;BME280;59614;51.012;-1.648;2022-07-29T01:02:59;100896.84;;;13.92;71.00
71109;BME280;59614;51.012;-1.648;2022-07-29T01:05:27;100906.63;;;13.89;71.27
71109;BME280;59614;51.012;-1.648;2022-07-29T01:07:54;100901.34;;;13.89;71.90
71109;BME280;59614;51.012;-1.648;2022-07-29T01:10:21;100897.78;;;13.89;71.90
71109;BME280;59614;51.012;-1.648;2022-07-29T01:12:49;100904.91;;;13.87;72.24
71109;BME280;59614;51.012;-1.648;2022-07-29T01:15:15;100901.41;;;13.85;72.14
71109;BME280;59614;51.012;-1.648;2022-07-29T01:18:01;100905.00;;;13.84;72.42
71109;BME280;59614;51.012;-1.648;2022-07-29T01:20:47;100898.00;;;13.80;72.69
71109;BME280;59614;51.012;-1.648;2022-07-29T01:31:25;100896.94;;;14.26;71.25
71109;BME280;59614;51.012;-1.648;2022-07-29T01:34:00;100910.22;;;14.26;70.79
71109;BME280;59614;51.012;-1.648;2022-07-29T01:36:32;100903.09;;;14.28;71.02
71109;BME280;59614;51.012;-1.648;2022-07-29T01:39:18;100909.19;;;14.30;70.50
71109;BME280;59614;51.012;-1.648;2022-07-29T01:41:54;100902.25;;;14.26;70.97
71109;BME280;59614;51.012;-1.648;2022-07-29T01:44:34;100909.41;;;14.23;71.62
71109;BME280;59614;51.012;-1.648;2022-07-29T01:47:06;100907.78;;;14.17;71.61
71109;BME280;59614;51.012;-1.648;2022-07-29T01:49:36;100903.59;;;14.07;71.26
71109;BME280;59614;51.012;-1.648;2022-07-29T01:52:13;100913.44;;;14.01;71.12
71109;BME280;59614;51.012;-1.648;2022-07-29T01:54:48;100911.78;;;13.96;71.25
71109;BME280;59614;51.012;-1.648;2022-07-29T01:57:16;100910.94;;;13.94;71.43
71109;BME280;59614;51.012;-1.648;2022-07-29T01:59:43;100916.34;;;13.89;71.60
71109;BME280;59614;51.012;-1.648;2022-07-29T02:02:11;100908.47;;;13.86;71.34
71109;BME280;59614;51.012;-1.648;2022-07-29T02:04:38;100911.19;;;13.83;71.43
71109;BME280;59614;51.012;-1.648;2022-07-29T02:07:07;100914.81;;;13.79;71.41
71109;BME280;59614;51.012;-1.648;2022-07-29T02:09:35;100909.56;;;13.75;71.29
71109;BME280;59614;51.012;-1.648;2022-07-29T02:12:03;100906.97;;;13.74;71.49
71109;BME280;59614;51.012;-1.648;2022-07-29T02:14:30;100908.78;;;13.72;71.92
71109;BME280;59614;51.012;-1.648;2022-07-29T02:16:59;100902.66;;;13.68;72.09
71109;BME280;59614;51.012;-1.648;2022-07-29T02:19:26;100915.06;;;13.68;71.60
71109;BME280;59614;51.012;-1.648;2022-07-29T02:21:53;100907.06;;;13.69;71.96
71109;BME280;59614;51.012;-1.648;2022-07-29T02:24:20;100906.13;;;13.72;71.92
71109;BME280;59614;51.012;-1.648;2022-07-29T02:26:49;100910.47;;;13.74;72.08
71109;BME280;59614;51.012;-1.648;2022-07-29T02:29:15;100904.25;;;13.75;72.02
71109;BME280;59614;51.012;-1.648;2022-07-29T02:31:44;100910.56;;;13.71;72.38
71109;BME280;59614;51.012;-1.648;2022-07-29T02:34:12;100908.88;;;13.67;72.31
71109;BME280;59614;51.012;-1.648;2022-07-29T02:36:40;100900.97;;;13.64;72.48
71109;BME280;59614;51.012;-1.648;2022-07-29T02:39:07;100906.47;;;13.55;72.66
71109;BME280;59614;51.012;-1.648;2022-07-29T02:41:40;100910.28;;;13.41;73.44
71109;BME280;59614;51.012;-1.648;2022-07-29T02:44:11;100919.19;;;13.37;73.53
71109;BME280;59614;51.012;-1.648;2022-07-29T02:46:43;100913.00;;;13.37;73.53
71109;BME280;59614;51.012;-1.648;2022-07-29T02:51:46;100908.78;;;13.28;73.85
71109;BME280;59614;51.012;-1.648;2022-07-29T02:57:00;100912.47;;;13.18;75.01
71109;BME280;59614;51.012;-1.648;2022-07-29T02:59:30;100908.22;;;13.10;75.15
71109;BME280;59614;51.012;-1.648;2022-07-29T03:01:58;100902.16;;;13.05;75.48
71109;BME280;59614;51.012;-1.648;2022-07-29T03:04:26;100902.19;;;13.02;75.51
71109;BME280;59614;51.012;-1.648;2022-07-29T03:06:53;100903.06;;;13.03;75.76
71109;BME280;59614;51.012;-1.648;2022-07-29T03:09:21;100903.94;;;13.03;76.21
71109;BME280;59614;51.012;-1.648;2022-07-29T03:11:49;100895.09;;;13.04;76.13
71109;BME280;59614;51.012;-1.648;2022-07-29T03:14:16;100898.56;;;13.08;76.24
71109;BME280;59614;51.012;-1.648;2022-07-29T03:16:42;100899.41;;;13.10;76.34
71109;BME280;59614;51.012;-1.648;2022-07-29T03:19:08;100894.91;;;13.13;76.14
71109;BME280;59614;51.012;-1.648;2022-07-29T03:21:34;100899.28;;;13.16;76.29
71109;BME280;59614;51.012;-1.648;2022-07-29T03:23:59;100902.72;;;13.20;76.42
71109;BME280;59614;51.012;-1.648;2022-07-29T03:26:25;100901.78;;;13.24;76.05
71109;BME280;59614;51.012;-1.648;2022-07-29T03:28:50;100902.53;;;13.29;76.30
71109;BME280;59614;51.012;-1.648;2022-07-29T03:31:16;100906.03;;;13.31;76.37
71109;BME280;59614;51.012;-1.648;2022-07-29T03:33:41;100906.91;;;13.33;76.66
71109;BME280;59614;51.012;-1.648;2022-07-29T03:36:07;100900.69;;;13.34;76.61
71109;BME280;59614;51.012;-1.648;2022-07-29T03:38:34;100896.28;;;13.33;76.76
71109;BME280;59614;51.012;-1.648;2022-07-29T03:41:09;100899.84;;;13.34;76.78
71109;BME280;59614;51.012;-1.648;2022-07-29T03:43:37;100896.22;;;13.36;77.19
71109;BME280;59614;51.012;-1.648;2022-07-29T03:46:08;100899.72;;;13.38;77.42
71109;BME280;59614;51.012;-1.648;2022-07-29T03:48:37;100900.56;;;13.42;77.36
71109;BME280;59614;51.012;-1.648;2022-07-29T03:51:05;100905.81;;;13.43;77.49
71109;BME280;59614;51.012;-1.648;2022-07-29T03:53:31;100904.94;;;13.44;77.76
71109;BME280;59614;51.012;-1.648;2022-07-29T03:55:59;100908.53;;;13.40;77.61
71109;BME280;59614;51.012;-1.648;2022-07-29T03:58:27;100905.81;;;13.43;77.32
71109;BME280;59614;51.012;-1.648;2022-07-29T04:00:54;100912.03;;;13.44;77.16
71109;BME280;59614;51.012;-1.648;2022-07-29T04:03:21;100907.63;;;13.41;77.56
71109;BME280;59614;51.012;-1.648;2022-07-29T04:05:58;100911.19;;;13.40;77.56
71109;BME280;59614;51.012;-1.648;2022-07-29T04:08:24;100911.19;;;13.39;78.04
71109;BME280;59614;51.012;-1.648;2022-07-29T04:10:49;100909.44;;;13.41;77.83
71109;BME280;59614;51.012;-1.648;2022-07-29T04:13:17;100913.78;;;13.43;77.40
71109;BME280;59614;51.012;-1.648;2022-07-29T04:15:43;100916.44;;;13.45;77.87
71109;BME280;59614;51.012;-1.648;2022-07-29T04:18:08;100906.69;;;13.46;77.98
71109;BME280;59614;51.012;-1.648;2022-07-29T04:20:33;100903.97;;;13.49;77.33
71109;BME280;59614;51.012;-1.648;2022-07-29T04:22:59;100917.22;;;13.49;77.52
71109;BME280;59614;51.012;-1.648;2022-07-29T04:25:24;100911.84;;;13.52;77.49
71109;BME280;59614;51.012;-1.648;2022-07-29T04:27:50;100915.31;;;13.55;77.05
71109;BME280;59614;51.012;-1.648;2022-07-29T04:30:28;100905.53;;;13.57;77.03
71109;BME280;59614;51.012;-1.648;2022-07-29T04:32:53;100916.97;;;13.61;77.20
71109;BME280;59614;51.012;-1.648;2022-07-29T04:35:19;100908.06;;;13.64;77.29
71109;BME280;59614;51.012;-1.648;2022-07-29T04:37:45;100907.19;;;13.63;77.47
71109;BME280;59614;51.012;-1.648;2022-07-29T04:40:11;100908.03;;;13.65;77.29
71109;BME280;59614;51.012;-1.648;2022-07-29T04:42:37;100915.94;;;13.68;77.34
71109;BME280;59614;51.012;-1.648;2022-07-29T04:45:03;100910.56;;;13.71;77.37
71109;BME280;59614;51.012;-1.648;2022-07-29T04:47:28;100909.66;;;13.72;77.35
71109;BME280;59614;51.012;-1.648;2022-07-29T04:49:54;100914.97;;;13.72;77.24
71109;BME280;59614;51.012;-1.648;2022-07-29T04:52:20;100920.19;;;13.75;77.10
71109;BME280;59614;51.012;-1.648;2022-07-29T04:54:45;100916.63;;;13.78;76.71
71109;BME280;59614;51.012;-1.648;2022-07-29T04:57:11;100915.66;;;13.81;76.93
71109;BME280;59614;51.012;-1.648;2022-07-29T04:59:36;100910.31;;;13.82;77.12
71109;BME280;59614;51.012;-1.648;2022-07-29T05:02:01;100905.91;;;13.83;77.22
71109;BME280;59614;51.012;-1.648;2022-07-29T05:04:27;100903.19;;;13.84;77.04
71109;BME280;59614;51.012;-1.648;2022-07-29T05:06:52;100896.94;;;13.87;77.13
71109;BME280;59614;51.012;-1.648;2022-07-29T05:09:18;100900.38;;;13.92;77.00
71109;BME280;59614;51.012;-1.648;2022-07-29T05:11:43;100905.63;;;13.95;77.59
71109;BME280;59614;51.012;-1.648;2022-07-29T05:14:09;100911.69;;;14.00;77.12
71109;BME280;59614;51.012;-1.648;2022-07-29T05:16:34;100914.28;;;14.03;77.51
71109;BME280;59614;51.012;-1.648;2022-07-29T05:18:59;100919.53;;;14.07;77.09
71109;BME280;59614;51.012;-1.648;2022-07-29T05:21:25;100926.63;;;14.04;77.03
71109;BME280;59614;51.012;-1.648;2022-07-29T05:23:50;100927.59;;;14.00;77.25
71109;BME280;59614;51.012;-1.648;2022-07-29T05:26:16;100933.66;;;14.07;77.01
71109;BME280;59614;51.012;-1.648;2022-07-29T05:28:41;100937.94;;;14.13;77.04
71109;BME280;59614;51.012;-1.648;2022-07-29T05:31:06;100938.63;;;14.21;76.81
71109;BME280;59614;51.012;-1.648;2022-07-29T05:33:32;100940.31;;;14.25;77.15
71109;BME280;59614;51.012;-1.648;2022-07-29T05:35:57;100933.94;;;14.34;77.50
71109;BME280;59614;51.012;-1.648;2022-07-29T05:38:23;100933.69;;;14.43;77.03
71109;BME280;59614;51.012;-1.648;2022-07-29T05:40:48;100941.56;;;14.48;76.84
71109;BME280;59614;51.012;-1.648;2022-07-29T05:43:14;100935.16;;;14.57;76.34
71109;BME280;59614;51.012;-1.648;2022-07-29T05:45:39;100942.91;;;14.64;76.13
71109;BME280;59614;51.012;-1.648;2022-07-29T05:48:04;100946.56;;;14.60;75.89
71109;BME280;59614;51.012;-1.648;2022-07-29T05:50:30;100943.19;;;14.54;76.39
71109;BME280;59614;51.012;-1.648;2022-07-29T05:52:55;100936.97;;;14.55;76.28
71109;BME280;59614;51.012;-1.648;2022-07-29T05:55:21;100934.19;;;14.59;75.96
71109;BME280;59614;51.012;-1.648;2022-07-29T05:57:46;100937.75;;;14.58;76.15
71109;BME280;59614;51.012;-1.648;2022-07-29T06:00:12;100939.50;;;14.59;75.85
71109;BME280;59614;51.012;-1.648;2022-07-29T06:02:37;100943.22;;;14.52;76.96
71109;BME280;59614;51.012;-1.648;2022-07-29T06:05:03;100949.28;;;14.57;76.03
71109;BME280;59614;51.012;-1.648;2022-07-29T06:07:28;100957.25;;;14.57;76.62
71109;BME280;59614;51.012;-1.648;2022-07-29T06:09:54;100952.97;;;14.51;77.07
71109;BME280;59614;51.012;-1.648;2022-07-29T06:12:19;100953.03;;;14.48;76.96
71109;BME280;59614;51.012;-1.648;2022-07-29T06:14:45;100953.13;;;14.45;76.46
71109;BME280;59614;51.012;-1.648;2022-07-29T06:17:10;100954.09;;;14.41;76.69
71109;BME280;59614;51.012;-1.648;2022-07-29T06:19:37;100947.25;;;14.31;77.24
71109;BME280;59614;51.012;-1.648;2022-07-29T06:22:03;100952.28;;;14.43;77.26
71109;BME280;59614;51.012;-1.648;2022-07-29T06:24:29;100947.00;;;14.42;77.02
71109;BME280;59614;51.012;-1.648;2022-07-29T06:26:54;100947.84;;;14.44;76.73
71109;BME280;59614;51.012;-1.648;2022-07-29T06:29:20;100946.78;;;14.51;77.63
71109;BME280;59614;51.012;-1.648;2022-07-29T06:31:45;100956.28;;;14.61;77.35
71109;BME280;59614;51.012;-1.648;2022-07-29T06:34:11;100953.38;;;14.72;77.87
71109;BME280;59614;51.012;-1.648;2022-07-29T06:36:37;100954.75;;;14.87;75.89
71109;BME280;59614;51.012;-1.648;2022-07-29T06:39:06;100957.16;;;14.98;76.91
71109;BME280;59614;51.012;-1.648;2022-07-29T06:41:32;100957.53;;;15.17;75.29
71109;BME280;59614;51.012;-1.648;2022-07-29T06:43:57;100967.59;;;15.39;74.78
71109;BME280;59614;51.012;-1.648;2022-07-29T06:46:24;100968.22;;;15.47;75.00
71109;BME280;59614;51.012;-1.648;2022-07-29T06:48:50;100963.22;;;15.68;73.87
71109;BME280;59614;51.012;-1.648;2022-07-29T06:51:16;100955.69;;;15.82;73.64
71109;BME280;59614;51.012;-1.648;2022-07-29T06:53:42;100965.72;;;16.04;71.80
71109;BME280;59614;51.012;-1.648;2022-07-29T06:56:08;100968.84;;;16.18;71.36
71109;BME280;59614;51.012;-1.648;2022-07-29T06:58:34;100966.50;;;16.36;70.41
71109;BME280;59614;51.012;-1.648;2022-07-29T07:01:05;100965.28;;;16.46;70.74
71109;BME280;59614;51.012;-1.648;2022-07-29T07:03:31;100975.75;;;16.79;69.77
71109;BME280;59614;51.012;-1.648;2022-07-29T07:05:57;100975.78;;;17.06;68.05
71109;BME280;59614;51.012;-1.648;2022-07-29T07:08:23;100972.44;;;17.25;67.10
71109;BME280;59614;51.012;-1.648;2022-07-29T07:10:49;100966.25;;;17.50;67.37
71109;BME280;59614;51.012;-1.648;2022-07-29T07:13:15;100969.97;;;17.69;65.86
71109;BME280;59614;51.012;-1.648;2022-07-29T07:15:43;100965.53;;;18.16;64.78
71109;BME280;59614;51.012;-1.648;2022-07-29T07:18:08;100966.91;;;18.26;64.31
71109;BME280;59614;51.012;-1.648;2022-07-29T07:20:34;100971.47;;;18.46;63.14
71109;BME280;59614;51.012;-1.648;2022-07-29T07:23:00;100975.00;;;18.69;62.46
71109;BME280;59614;51.012;-1.648;2022-07-29T07:25:25;100973.59;;;19.03;62.19
71109;BME280;59614;51.012;-1.648;2022-07-29T07:27:51;100968.75;;;19.32;61.26
71109;BME280;59614;51.012;-1.648;2022-07-29T07:30:16;100974.63;;;19.21;60.91
71109;BME280;59614;51.012;-1.648;2022-07-29T07:32:42;100967.75;;;19.55;60.73
71109;BME280;59614;51.012;-1.648;2022-07-29T07:35:08;100976.94;;;19.08;59.90
71109;BME280;59614;51.012;-1.648;2022-07-29T07:37:34;100977.94;;;19.66;60.48
71109;BME280;59614;51.012;-1.648;2022-07-29T07:40:00;100965.84;;;20.16;58.56
71109;BME280;59614;51.012;-1.648;2022-07-29T07:42:26;100974.22;;;20.28;57.67
71109;BME280;59614;51.012;-1.648;2022-07-29T07:44:52;100978.72;;;20.46;55.68
71109;BME280;59614;51.012;-1.648;2022-07-29T07:47:18;100977.06;;;20.80;56.12
71109;BME280;59614;51.012;-1.648;2022-07-29T07:49:52;100972.81;;;20.94;55.62
71109;BME280;59614;51.012;-1.648;2022-07-29T07:52:19;100974.09;;;21.38;53.91
71109;BME280;59614;51.012;-1.648;2022-07-29T07:54:45;100978.78;;;21.34;54.42
71109;BME280;59614;51.012;-1.648;2022-07-29T07:57:11;100976.19;;;21.66;53.04
71109;BME280;59614;51.012;-1.648;2022-07-29T07:59:37;100984.38;;;21.81;50.72
71109;BME280;59614;51.012;-1.648;2022-07-29T08:02:03;100977.88;;;21.51;51.13
71109;BME280;59614;51.012;-1.648;2022-07-29T08:04:29;100985.78;;;21.37;52.10
71109;BME280;59614;51.012;-1.648;2022-07-29T08:06:55;100970.09;;;21.96;49.68
71109;BME280;59614;51.012;-1.648;2022-07-29T08:09:22;100963.41;;;21.87;50.15
71109;BME280;59614;51.012;-1.648;2022-07-29T08:11:47;100962.75;;;22.16;48.46
71109;BME280;59614;51.012;-1.648;2022-07-29T08:14:13;100968.09;;;22.32;49.90
71109;BME280;59614;51.012;-1.648;2022-07-29T08:16:39;100969.59;;;22.21;48.87
71109;BME280;59614;51.012;-1.648;2022-07-29T08:19:06;100958.34;;;21.65;48.32
71109;BME280;59614;51.012;-1.648;2022-07-29T08:21:32;100963.34;;;22.21;46.77
71109;BME280;59614;51.012;-1.648;2022-07-29T08:23:57;100957.69;;;22.26;47.76
71109;BME280;59614;51.012;-1.648;2022-07-29T08:26:42;100960.22;;;22.45;46.70
71109;BME280;59614;51.012;-1.648;2022-07-29T08:29:08;100963.53;;;22.18;47.47
71109;BME280;59614;51.012;-1.648;2022-07-29T08:31:33;100961.84;;;22.31;46.83
71109;BME280;59614;51.012;-1.648;2022-07-29T08:33:59;100963.00;;;22.43;43.58
71109;BME280;59614;51.012;-1.648;2022-07-29T08:36:25;100971.25;;;22.87;44.96
71109;BME280;59614;51.012;-1.648;2022-07-29T08:38:51;100970.78;;;22.64;45.96
71109;BME280;59614;51.012;-1.648;2022-07-29T08:41:18;100969.56;;;22.70;43.40
71109;BME280;59614;51.012;-1.648;2022-07-29T08:43:44;100970.13;;;22.75;45.05
71109;BME280;59614;51.012;-1.648;2022-07-29T08:46:10;100961.06;;;22.61;44.38
71109;BME280;59614;51.012;-1.648;2022-07-29T08:48:36;100953.81;;;22.78;41.46
71109;BME280;59614;51.012;-1.648;2022-07-29T08:51:02;100969.34;;;23.03;41.60
71109;BME280;59614;51.012;-1.648;2022-07-29T08:53:28;100969.38;;;23.48;40.92
71109;BME280;59614;51.012;-1.648;2022-07-29T08:55:55;100967.13;;;23.40;37.95
71109;BME280;59614;51.012;-1.648;2022-07-29T08:58:22;100965.63;;;23.65;36.71
71109;BME280;59614;51.012;-1.648;2022-07-29T09:00:54;100967.03;;;23.42;38.95
71109;BME280;59614;51.012;-1.648;2022-07-29T09:03:23;100969.75;;;23.85;40.91
71109;BME280;59614;51.012;-1.648;2022-07-29T09:05:49;100962.22;;;23.76;40.38
71109;BME280;59614;51.012;-1.648;2022-07-29T09:08:16;100961.84;;;23.82;37.87
71109;BME280;59614;51.012;-1.648;2022-07-29T09:10:42;100963.81;;;24.22;38.14
71109;BME280;59614;51.012;-1.648;2022-07-29T09:13:08;100954.91;;;24.07;38.49
71109;BME280;59614;51.012;-1.648;2022-07-29T09:15:34;100954.63;;;24.39;37.82
71109;BME280;59614;51.012;-1.648;2022-07-29T09:18:00;100962.59;;;25.08;36.06
71109;BME280;59614;51.012;-1.648;2022-07-29T09:20:28;100955.63;;;24.78;36.63
71109;BME280;59614;51.012;-1.648;2022-07-29T09:23:13;100951.75;;;24.70;37.23
71109;BME280;59614;51.012;-1.648;2022-07-29T09:25:40;100953.00;;;24.36;36.55
71109;BME280;59614;51.012;-1.648;2022-07-29T09:28:14;100957.13;;;24.70;36.26
71109;BME280;59614;51.012;-1.648;2022-07-29T09:30:55;100956.81;;;25.40;34.42
71109;BME280;59614;51.012;-1.648;2022-07-29T09:33:22;100966.09;;;24.70;34.91
71109;BME280;59614;51.012;-1.648;2022-07-29T09:36:05;100955.25;;;25.36;34.04
71109;BME280;59614;51.012;-1.648;2022-07-29T09:38:32;100950.72;;;25.63;31.82
71109;BME280;59614;51.012;-1.648;2022-07-29T09:41:02;100954.50;;;25.08;31.63
71109;BME280;59614;51.012;-1.648;2022-07-29T09:43:28;100961.06;;;25.82;31.56
71109;BME280;59614;51.012;-1.648;2022-07-29T09:45:54;100958.50;;;25.80;31.68
71109;BME280;59614;51.012;-1.648;2022-07-29T09:48:22;100945.22;;;26.01;30.68
71109;BME280;59614;51.012;-1.648;2022-07-29T09:50:50;100953.41;;;25.24;32.03
71109;BME280;59614;51.012;-1.648;2022-07-29T09:53:36;100957.31;;;24.66;32.18
71109;BME280;59614;51.012;-1.648;2022-07-29T09:56:03;100959.78;;;24.97;31.62
71109;BME280;59614;51.012;-1.648;2022-07-29T09:58:29;100945.41;;;24.56;33.91
71109;BME280;59614;51.012;-1.648;2022-07-29T10:00:55;100955.25;;;25.23;32.63
71109;BME280;59614;51.012;-1.648;2022-07-29T10:03:22;100947.78;;;24.88;30.86
71109;BME280;59614;51.012;-1.648;2022-07-29T10:06:08;100946.28;;;25.62;30.87
71109;BME280;59614;51.012;-1.648;2022-07-29T10:08:34;100950.47;;;25.92;28.36
71109;BME280;59614;51.012;-1.648;2022-07-29T10:11:15;100948.41;;;26.32;30.14
71109;BME280;59614;51.012;-1.648;2022-07-29T10:13:43;100944.25;;;26.02;30.82
71109;BME280;59614;51.012;-1.648;2022-07-29T10:16:08;100952.88;;;25.70;31.28
71109;BME280;59614;51.012;-1.648;2022-07-29T10:18:34;100946.41;;;25.60;31.55
71109;BME280;59614;51.012;-1.648;2022-07-29T10:21:00;100953.97;;;25.29;31.94
71109;BME280;59614;51.012;-1.648;2022-07-29T10:23:28;100951.50;;;26.63;31.92
71109;BME280;59614;51.012;-1.648;2022-07-29T10:25:54;100954.25;;;26.75;30.21
71109;BME280;59614;51.012;-1.648;2022-07-29T10:28:20;100944.66;;;26.09;29.92
71109;BME280;59614;51.012;-1.648;2022-07-29T10:30:46;100946.53;;;26.09;29.60
71109;BME280;59614;51.012;-1.648;2022-07-29T10:33:40;100944.03;;;26.05;30.12
71109;BME280;59614;51.012;-1.648;2022-07-29T10:44:20;100937.13;;;26.39;28.88
71109;BME280;59614;51.012;-1.648;2022-07-29T10:46:48;100948.53;;;27.49;31.03
71109;BME280;59614;51.012;-1.648;2022-07-29T10:57:27;100950.25;;;25.95;32.38
71109;BME280;59614;51.012;-1.648;2022-07-29T11:05:02;100950.00;;;27.42;30.22
71109;BME280;59614;51.012;-1.648;2022-07-29T11:07:29;100947.13;;;28.23;30.46
71109;BME280;59614;51.012;-1.648;2022-07-29T11:15:04;100952.69;;;27.42;29.59
71109;BME280;59614;51.012;-1.648;2022-07-29T11:20:47;100953.47;;;27.44;28.51
71109;BME280;59614;51.012;-1.648;2022-07-29T11:25:45;100955.78;;;26.79;28.76
71109;BME280;59614;51.012;-1.648;2022-07-29T11:28:30;100943.44;;;28.01;30.65
71109;BME280;59614;51.012;-1.648;2022-07-29T11:30:56;100957.47;;;28.62;28.59
71109;BME280;59614;51.012;-1.648;2022-07-29T11:33:32;100959.00;;;28.11;27.56
71109;BME280;59614;51.012;-1.648;2022-07-29T11:36:14;100950.00;;;27.87;28.17
71109;BME280;59614;51.012;-1.648;2022-07-29T11:38:40;100952.66;;;28.33;29.04
71109;BME280;59614;51.012;-1.648;2022-07-29T11:41:26;100952.97;;;28.51;27.56
71109;BME280;59614;51.012;-1.648;2022-07-29T11:43:58;100951.19;;;28.17;27.22
71109;BME280;59614;51.012;-1.648;2022-07-29T11:49:08;100940.00;;;28.87;25.94
71109;BME280;59614;51.012;-1.648;2022-07-29T11:51:36;100936.19;;;28.78;28.81
71109;BME280;59614;51.012;-1.648;2022-07-29T11:54:02;100938.59;;;28.60;27.21
71109;BME280;59614;51.012;-1.648;2022-07-29T11:56:31;100938.91;;;29.00;28.17
71109;BME280;59614;51.012;-1.648;2022-07-29T11:59:04;100936.69;;;28.51;27.77
71109;BME280;59614;51.012;-1.648;2022-07-29T12:01:30;100935.69;;;28.52;26.72
71109;BME280;59614;51.012;-1.648;2022-07-29T12:04:05;100939.88;;;29.20;29.01
71109;BME280;59614;51.012;-1.648;2022-07-29T12:06:32;100929.81;;;29.63;26.58
71109;BME280;59614;51.012;-1.648;2022-07-29T12:08:58;100927.97;;;29.11;27.22
71109;BME280;59614;51.012;-1.648;2022-07-29T12:11:24;100927.31;;;29.90;26.06
71109;BME280;59614;51.012;-1.648;2022-07-29T12:13:51;100923.19;;;29.46;26.27
71109;BME280;59614;51.012;-1.648;2022-07-29T12:16:16;100914.91;;;30.08;26.20
71109;BME280;59614;51.012;-1.648;2022-07-29T12:18:42;100909.13;;;30.61;26.73
71109;BME280;59614;51.012;-1.648;2022-07-29T12:21:07;100909.25;;;31.37;26.34
71109;BME280;59614;51.012;-1.648;2022-07-29T12:23:33;100910.69;;;31.41;27.19
71109;BME280;59614;51.012;-1.648;2022-07-29T12:25:59;100917.63;;;29.26;27.17
71109;BME280;59614;51.012;-1.648;2022-07-29T12:28:24;100911.41;;;29.45;27.90
71109;BME280;59614;51.012;-1.648;2022-07-29T12:30:51;100913.25;;;27.83;29.05
71109;BME280;59614;51.012;-1.648;2022-07-29T12:35:58;100893.09;;;29.37;28.62
71109;BME280;59614;51.012;-1.648;2022-07-29T12:38:25;100895.59;;;30.79;26.83
71109;BME280;59614;51.012;-1.648;2022-07-29T12:40:52;100889.44;;;30.68;25.63
71109;BME280;59614;51.012;-1.648;2022-07-29T12:43:22;100896.19;;;29.73;26.14
71109;BME280;59614;51.012;-1.648;2022-07-29T12:45:56;100901.53;;;29.75;25.42
71109;BME280;59614;51.012;-1.648;2022-07-29T12:48:39;100915.50;;;29.61;25.89
71109;BME280;59614;51.012;-1.648;2022-07-29T12:51:06;100902.41;;;29.23;27.53
71109;BME280;59614;51.012;-1.648;2022-07-29T12:53:33;100901.41;;;29.46;25.84
71109;BME280;59614;51.012;-1.648;2022-07-29T12:55:59;100902.56;;;29.43;25.77
71109;BME280;59614;51.012;-1.648;2022-07-29T13:01:09;100903.56;;;29.42;24.75
71109;BME280;59614;51.012;-1.648;2022-07-29T13:03:53;100902.94;;;29.69;27.46
71109;BME280;59614;51.012;-1.648;2022-07-29T13:06:40;100911.88;;;29.91;24.17
71109;BME280;59614;51.012;-1.648;2022-07-29T13:14:05;100903.25;;;29.86;25.73
71109;BME280;59614;51.012;-1.648;2022-07-29T13:16:31;100911.56;;;29.22;25.79
71109;BME280;59614;51.012;-1.648;2022-07-29T13:21:31;100903.34;;;30.25;25.43
71109;BME280;59614;51.012;-1.648;2022-07-29T13:23:56;100903.06;;;30.18;25.31
71109;BME280;59614;51.012;-1.648;2022-07-29T13:26:22;100906.16;;;31.02;25.10
71109;BME280;59614;51.012;-1.648;2022-07-29T13:28:47;100906.31;;;31.01;25.46
71109;BME280;59614;51.012;-1.648;2022-07-29T13:31:13;100907.06;;;30.44;25.49
71109;BME280;59614;51.012;-1.648;2022-07-29T13:33:38;100903.56;;;29.52;25.89
71109;BME280;59614;51.012;-1.648;2022-07-29T13:36:04;100915.03;;;31.24;25.55
71109;BME280;59614;51.012;-1.648;2022-07-29T13:38:29;100912.25;;;30.66;26.63
71109;BME280;59614;51.012;-1.648;2022-07-29T13:40:55;100913.69;;;31.38;23.66
71109;BME280;59614;51.012;-1.648;2022-07-29T13:43:20;100911.16;;;31.54;24.07
71109;BME280;59614;51.012;-1.648;2022-07-29T13:45:45;100913.63;;;32.49;25.03